Time;durP1;ratioP1;P1;durP2;ratioP2;P2;SDS_P1;SDS_P2;PMS_P1;PMS_P2;Temp;Humidity;BMP_temperature;BMP_pressure;BME280_temperature;BME280_humidity;BME280_pressure;Samples;Min_cycle;Max_cycle;Signal;HPM_P1;HPM_P2
2021/06/17 00:01:42;;;;;;;2.53;1.98;;;23.70;51.70;;;;;;5032143;28;20478;-65
2021/06/17 00:04:08;;;;;;;2.37;1.80;;;23.70;51.70;;;;;;5030749;28;20876;-65
2021/06/17 00:06:33;;;;;;;3.35;1.80;;;23.70;51.80;;;;;;5031552;28;20474;-65
2021/06/17 00:08:59;;;;;;;3.07;2.20;;;23.70;51.80;;;;;;5031384;28;20748;-65
2021/06/17 00:11:25;;;;;;;2.53;1.85;;;23.70;51.80;;;;;;5031851;28;20891;-64
2021/06/17 00:13:51;;;;;;;2.75;1.90;;;23.70;51.70;;;;;;5031763;28;20470;-65
2021/06/17 00:16:18;;;;;;;2.03;1.70;;;23.70;51.70;;;;;;5031848;28;20934;-65
2021/06/17 00:18:44;;;;;;;2.90;1.98;;;23.70;51.80;;;;;;5031600;28;20430;-63
2021/06/17 00:21:09;;;;;;;2.10;1.70;;;23.70;51.80;;;;;;5030518;28;20442;-65
2021/06/17 00:23:35;;;;;;;2.70;1.90;;;23.70;51.70;;;;;;5031764;28;20740;-64
2021/06/17 00:26:02;;;;;;;2.60;2.10;;;23.70;51.60;;;;;;5031813;28;20387;-65
2021/06/17 00:28:28;;;;;;;2.60;2.00;;;23.70;51.60;;;;;;5031512;28;20403;-64
2021/06/17 00:30:54;;;;;;;2.75;1.88;;;23.70;51.80;;;;;;5031319;28;20387;-65
2021/06/17 00:33:20;;;;;;;2.55;1.80;;;23.70;51.70;;;;;;5046954;28;20417;-65
2021/06/17 00:35:46;;;;;;;3.25;2.00;;;23.70;51.60;;;;;;5031025;28;20391;-66
2021/06/17 00:38:13;;;;;;;2.30;1.90;;;23.70;51.50;;;;;;5031550;28;20867;-65
2021/06/17 00:40:39;;;;;;;2.10;1.75;;;23.60;51.50;;;;;;5030778;28;20429;-66
2021/06/17 00:43:05;;;;;;;2.80;2.08;;;23.70;51.50;;;;;;5031512;28;20387;-65
2021/06/17 00:45:34;;;;;;;2.22;1.92;;;23.60;51.40;;;;;;5031258;28;20403;-65
2021/06/17 00:48:01;;;;;;;2.65;1.80;;;23.70;51.60;;;;;;5031396;28;20929;-64
2021/06/17 00:50:33;;;;;;;2.30;1.73;;;23.60;51.40;;;;;;5031127;28;20464;-65
2021/06/17 00:52:59;;;;;;;2.92;1.73;;;23.60;51.40;;;;;;5031422;28;20902;-66
2021/06/17 00:55:25;;;;;;;2.70;1.90;;;23.60;51.40;;;;;;5031182;28;20455;-66
2021/06/17 00:57:51;;;;;;;2.00;1.80;;;23.60;51.40;;;;;;5031329;28;20403;-65
2021/06/17 01:00:18;;;;;;;2.33;1.90;;;23.60;51.40;;;;;;5031664;28;20387;-65
2021/06/17 01:02:44;;;;;;;2.45;1.90;;;23.60;51.30;;;;;;5030808;28;20398;-64
2021/06/17 01:05:13;;;;;;;2.20;1.70;;;23.60;52.00;;;;;;5031286;28;20433;-66
2021/06/17 01:08:06;;;;;;;2.20;1.90;;;23.60;51.40;;;;;;5031091;28;20425;-65
2021/06/17 01:10:38;;;;;;;2.25;1.92;;;23.60;51.40;;;;;;5031028;28;20387;-66
2021/06/17 01:13:38;;;;;;;2.40;1.83;;;23.60;51.30;;;;;;5031402;28;20445;-65
2021/06/17 01:16:30;;;;;;;2.90;1.98;;;23.60;51.50;;;;;;5030781;28;20411;-65
2021/06/17 01:19:00;;;;;;;2.20;1.70;;;23.60;51.30;;;;;;5030535;28;20395;-65
2021/06/17 01:21:47;;;;;;;2.45;1.90;;;23.60;51.30;;;;;;5031085;28;20705;-65
2021/06/17 01:24:34;;;;;;;1.92;1.73;;;23.60;51.30;;;;;;5019521;28;20757;-64
2021/06/17 01:27:23;;;;;;;2.00;1.80;;;23.60;51.30;;;;;;5010420;28;20415;-65
2021/06/17 01:29:54;;;;;;;2.58;1.90;;;23.60;51.40;;;;;;5011327;28;20396;-65
2021/06/17 01:32:23;;;;;;;2.00;1.80;;;23.60;51.40;;;;;;5011251;28;20388;-65
2021/06/17 01:34:51;;;;;;;2.47;1.88;;;23.60;51.40;;;;;;5011214;28;20392;-65
2021/06/17 01:37:19;;;;;;;2.42;1.75;;;23.60;51.30;;;;;;5011398;28;20400;-65
2021/06/17 01:39:45;;;;;;;2.72;1.80;;;23.60;51.40;;;;;;5011303;28;20873;-65
2021/06/17 01:42:12;;;;;;;2.20;1.70;;;23.60;51.30;;;;;;5011343;28;20389;-66
2021/06/17 01:44:38;;;;;;;2.15;1.73;;;23.60;51.20;;;;;;5010657;28;20409;-65
2021/06/17 01:47:05;;;;;;;2.30;1.90;;;23.50;51.10;;;;;;5026433;28;20429;-65
2021/06/17 01:49:34;;;;;;;2.20;1.98;;;23.60;51.20;;;;;;5011155;28;20472;-65
2021/06/17 01:52:01;;;;;;;2.17;1.85;;;23.50;51.20;;;;;;5011160;28;20397;-65
2021/06/17 01:54:28;;;;;;;2.20;2.00;;;23.50;51.20;;;;;;5013711;28;20397;-65
2021/06/17 01:56:57;;;;;;;2.60;1.85;;;23.60;51.20;;;;;;5014536;28;20401;-65
2021/06/17 01:59:24;;;;;;;2.90;2.10;;;23.60;51.30;;;;;;5014752;28;20451;-66
2021/06/17 02:01:56;;;;;;;2.15;1.80;;;23.50;51.20;;;;;;5014538;28;20385;-66
2021/06/17 02:04:23;;;;;;;3.20;2.00;;;23.50;51.30;;;;;;5014658;28;20404;-65
2021/06/17 02:06:48;;;;;;;2.03;1.80;;;23.50;51.20;;;;;;5014033;28;20424;-65
2021/06/17 02:09:16;;;;;;;2.43;1.80;;;23.50;51.20;;;;;;5014456;28;20407;-65
2021/06/17 02:11:42;;;;;;;2.78;2.03;;;23.50;51.20;;;;;;5014421;28;20420;-65
2021/06/17 02:14:10;;;;;;;2.22;2.03;;;23.50;51.20;;;;;;5014442;28;20830;-65
2021/06/17 02:16:43;;;;;;;2.35;2.00;;;23.50;51.20;;;;;;5014175;28;20404;-65
2021/06/17 02:19:14;;;;;;;2.37;2.00;;;23.50;51.20;;;;;;5013797;28;20459;-65
2021/06/17 02:21:41;;;;;;;2.08;1.63;;;23.50;51.20;;;;;;5014124;28;20388;-65
2021/06/17 02:24:10;;;;;;;2.40;1.90;;;23.50;51.20;;;;;;5014274;28;20459;-66
2021/06/17 02:26:40;;;;;;;2.05;1.80;;;23.50;51.20;;;;;;5013812;28;20423;-66
2021/06/17 02:29:14;;;;;;;2.20;1.90;;;23.50;51.10;;;;;;5014151;28;20405;-65
2021/06/17 02:31:42;;;;;;;2.30;1.90;;;23.50;51.20;;;;;;5013809;28;20459;-65
2021/06/17 02:34:10;;;;;;;2.22;1.60;;;23.50;51.20;;;;;;5012827;28;20397;-65
2021/06/17 02:36:39;;;;;;;2.67;1.95;;;23.50;51.20;;;;;;5013747;28;20392;-65
2021/06/17 02:39:07;;;;;;;2.35;1.90;;;23.40;51.80;;;;;;5013928;28;20393;-65
2021/06/17 02:41:34;;;;;;;2.55;1.90;;;23.50;51.30;;;;;;5013859;28;20434;-66
2021/06/17 02:44:00;;;;;;;2.30;2.00;;;23.50;51.20;;;;;;5013761;28;20427;-66
2021/06/17 02:46:26;;;;;;;2.00;1.80;;;23.40;51.10;;;;;;5013739;28;20507;-61
2021/06/17 02:48:53;;;;;;;2.78;2.10;;;23.40;51.20;;;;;;5013477;28;20895;-65
2021/06/17 02:51:20;;;;;;;2.03;1.70;;;23.50;51.20;;;;;;5013714;28;20484;-65
2021/06/17 02:53:47;;;;;;;2.00;1.80;;;23.50;51.20;;;;;;5013662;28;20523;-64
2021/06/17 02:56:19;;;;;;;2.73;1.90;;;23.40;51.10;;;;;;5013786;28;20474;-66
2021/06/17 02:59:25;;;;;;;2.23;1.93;;;23.40;51.20;;;;;;5013100;28;20848;-65
2021/06/17 03:02:19;;;;;;;2.17;1.73;;;23.40;51.20;;;;;;5005115;28;20405;-64
2021/06/17 03:04:49;;;;;;;2.08;1.77;;;23.40;51.20;;;;;;5012003;28;20829;-65
2021/06/17 03:07:24;;;;;;;2.55;1.77;;;23.40;51.10;;;;;;5013377;28;20424;-65
2021/06/17 03:09:58;;;;;;;2.50;2.10;;;23.40;51.00;;;;;;5013216;28;20389;-65
2021/06/17 03:12:26;;;;;;;2.20;1.80;;;23.40;52.30;;;;;;5013457;28;20444;-65
2021/06/17 03:14:55;;;;;;;4.32;2.03;;;23.40;51.40;;;;;;5012840;28;20387;-66
2021/06/17 03:17:23;;;;;;;2.78;1.80;;;23.40;52.30;;;;;;5013176;28;20869;-66
2021/06/17 03:19:51;;;;;;;3.65;2.50;;;23.40;51.60;;;;;;5013173;28;20927;-65
2021/06/17 03:22:18;;;;;;;4.25;2.78;;;23.40;52.40;;;;;;5013146;28;20400;-65
2021/06/17 03:24:48;;;;;;;4.30;2.78;;;23.40;52.10;;;;;;5012664;28;20385;-65
2021/06/17 03:27:15;;;;;;;4.15;2.90;;;23.40;52.10;;;;;;5011635;28;20417;-65
2021/06/17 03:29:46;;;;;;;4.68;3.00;;;23.40;52.10;;;;;;5012999;28;20389;-64
2021/06/17 03:32:13;;;;;;;4.70;3.08;;;23.40;51.70;;;;;;5011731;28;20401;-65
2021/06/17 03:34:42;;;;;;;4.47;2.80;;;23.40;52.00;;;;;;5012669;28;20392;-62
2021/06/17 03:37:11;;;;;;;5.43;2.80;;;23.40;52.30;;;;;;5012715;28;20396;-60
2021/06/17 03:39:38;;;;;;;4.93;2.92;;;23.40;52.30;;;;;;5012599;28;20388;-61
2021/06/17 03:42:06;;;;;;;5.20;3.08;;;23.40;52.50;;;;;;5012666;28;20488;-61
2021/06/17 03:44:34;;;;;;;6.75;3.45;;;23.40;52.40;;;;;;5012163;28;20409;-60
2021/06/17 03:47:01;;;;;;;4.45;3.40;;;23.40;52.50;;;;;;5012124;28;20470;-60
2021/06/17 03:49:28;;;;;;;3.63;2.95;;;23.40;52.30;;;;;;5012181;28;20447;-64
2021/06/17 03:51:56;;;;;;;4.07;3.03;;;23.40;52.50;;;;;;5012615;28;20389;-61
2021/06/17 03:54:24;;;;;;;6.53;3.08;;;23.40;52.10;;;;;;5012361;28;20881;-60
2021/06/17 03:56:57;;;;;;;4.97;3.13;;;23.40;51.90;;;;;;5011923;28;20389;-60
2021/06/17 03:59:26;;;;;;;5.15;3.22;;;23.40;51.90;;;;;;5012496;28;20400;-61
2021/06/17 04:01:52;;;;;;;6.65;3.40;;;23.30;51.80;;;;;;5012512;28;20431;-61
2021/06/17 04:04:19;;;;;;;7.20;2.90;;;23.30;51.90;;;;;;5012387;28;20397;-60
2021/06/17 04:06:55;;;;;;;5.18;2.92;;;23.30;51.80;;;;;;5010549;28;20416;-60
2021/06/17 04:09:28;;;;;;;5.77;3.20;;;23.30;52.20;;;;;;5012388;28;20409;-60
2021/06/17 04:12:17;;;;;;;4.20;2.85;;;23.30;52.20;;;;;;5012335;28;20377;-60
2021/06/17 04:14:47;;;;;;;4.63;3.05;;;23.30;52.00;;;;;;5012070;28;20400;-59
2021/06/17 04:17:17;;;;;;;6.07;2.92;;;23.30;52.20;;;;;;5011957;28;20471;-60
2021/06/17 04:19:44;;;;;;;3.60;2.88;;;23.30;52.20;;;;;;5010794;28;20404;-60
2021/06/17 04:22:14;;;;;;;3.80;2.70;;;23.30;52.10;;;;;;5011919;28;20397;-60
2021/06/17 04:24:44;;;;;;;3.90;2.58;;;23.30;52.10;;;;;;5011699;28;20797;-60
2021/06/17 04:27:10;;;;;;;4.15;2.80;;;23.30;52.00;;;;;;5011782;28;20417;-60
2021/06/17 04:29:39;;;;;;;3.72;2.72;;;23.30;51.80;;;;;;5011975;28;20447;-59
2021/06/17 04:32:08;;;;;;;4.03;2.35;;;23.30;51.80;;;;;;5012166;28;20415;-60
2021/06/17 04:34:35;;;;;;;3.05;2.40;;;23.30;51.70;;;;;;5011641;28;20412;-60
2021/06/17 04:37:07;;;;;;;3.10;2.33;;;23.30;52.20;;;;;;5011425;28;20490;-62
2021/06/17 04:39:33;;;;;;;3.55;2.30;;;23.30;51.50;;;;;;5011293;28;20877;-60
2021/06/17 04:41:59;;;;;;;3.45;2.50;;;23.30;51.40;;;;;;5011850;28;20389;-60
2021/06/17 04:44:25;;;;;;;2.85;2.38;;;23.30;51.40;;;;;;5011773;28;20417;-60
2021/06/17 04:46:54;;;;;;;3.70;2.53;;;23.30;51.40;;;;;;5011334;28;20408;-60
2021/06/17 04:49:21;;;;;;;3.65;2.35;;;23.30;51.40;;;;;;5011862;28;20407;-60
2021/06/17 04:51:52;;;;;;;3.97;2.40;;;23.30;51.30;;;;;;5011766;28;20435;-61
2021/06/17 04:54:18;;;;;;;4.03;2.50;;;23.30;51.30;;;;;;5011664;28;20396;-60
2021/06/17 04:56:47;;;;;;;3.47;2.33;;;23.30;51.40;;;;;;5012720;28;20754;-60
2021/06/17 04:59:16;;;;;;;3.57;2.53;;;23.30;51.30;;;;;;5021789;28;20395;-60
2021/06/17 05:01:42;;;;;;;6.68;2.75;;;23.30;51.30;;;;;;5017276;28;20385;-60
2021/06/17 05:04:09;;;;;;;4.25;2.63;;;23.30;51.70;;;;;;5017192;28;20757;-60
2021/06/17 05:06:40;;;;;;;5.63;2.70;;;23.30;51.70;;;;;;5010915;28;20412;-59
2021/06/17 05:11:52;;;;;;;5.10;2.35;;;23.30;51.30;;;;;;5011826;28;20376;-59
2021/06/17 05:14:18;;;;;;;4.10;2.45;;;23.30;51.40;;;;;;5009611;28;20828;-60
2021/06/17 05:16:44;;;;;;;3.90;2.50;;;23.30;51.40;;;;;;5010239;28;20730;-60
2021/06/17 05:19:10;;;;;;;4.37;2.43;;;23.30;51.40;;;;;;5009999;28;20396;-60
2021/06/17 05:21:36;;;;;;;5.70;2.67;;;23.30;51.40;;;;;;5010142;28;20401;-61
2021/06/17 05:24:02;;;;;;;4.25;2.60;;;23.30;51.50;;;;;;5009876;28;20393;-60
2021/06/17 05:26:28;;;;;;;5.72;2.72;;;23.30;51.20;;;;;;5010206;28;20418;-60
2021/06/17 05:28:55;;;;;;;5.65;2.90;;;23.30;51.20;;;;;;5011379;28;20388;-60
2021/06/17 05:31:23;;;;;;;6.45;3.13;;;23.30;51.30;;;;;;5015223;28;20388;-61
2021/06/17 05:33:49;;;;;;;6.85;3.60;;;23.30;51.40;;;;;;5015187;28;20408;-59
2021/06/17 05:36:15;;;;;;;4.60;3.25;;;23.30;51.40;;;;;;5015182;28;20865;-60
2021/06/17 05:38:41;;;;;;;4.88;3.50;;;23.30;51.60;;;;;;5014502;28;20401;-60
2021/06/17 05:41:07;;;;;;;5.18;3.70;;;23.40;51.60;;;;;;5014870;28;20399;-59
2021/06/17 05:43:32;;;;;;;6.70;3.53;;;23.30;51.50;;;;;;5014917;28;20885;-59
2021/06/17 05:45:59;;;;;;;5.63;3.47;;;23.40;51.60;;;;;;5014949;28;20919;-60
2021/06/17 05:48:25;;;;;;;3.90;3.13;;;23.40;51.70;;;;;;5014809;28;20416;-60
2021/06/17 05:50:51;;;;;;;3.45;3.15;;;23.40;51.50;;;;;;5014421;28;20397;-61
2021/06/17 05:53:16;;;;;;;4.83;3.20;;;23.40;51.60;;;;;;5014412;28;20392;-59
2021/06/17 05:55:42;;;;;;;6.30;3.28;;;23.40;51.60;;;;;;5014322;28;20427;-59
2021/06/17 05:58:09;;;;;;;4.37;3.17;;;23.40;51.50;;;;;;5017547;28;20764;-60
2021/06/17 06:00:35;;;;;;;4.20;3.00;;;23.40;51.50;;;;;;5027886;28;20487;-60
2021/06/17 06:03:00;;;;;;;6.68;3.40;;;23.40;51.50;;;;;;5012667;28;20397;-60
2021/06/17 06:05:26;;;;;;;5.67;2.90;;;23.40;51.80;;;;;;5014316;28;20939;-60
2021/06/17 06:08:00;;;;;;;5.68;3.30;;;23.40;51.70;;;;;;5014064;28;20420;-60
2021/06/17 06:10:26;;;;;;;4.30;3.00;;;23.40;51.40;;;;;;5014334;28;20388;-60
2021/06/17 06:12:52;;;;;;;4.70;3.20;;;23.40;51.60;;;;;;5013875;28;20393;-60
2021/06/17 06:15:18;;;;;;;4.37;3.07;;;23.40;51.50;;;;;;5014379;28;20399;-60
2021/06/17 06:17:44;;;;;;;4.10;3.10;;;23.50;51.30;;;;;;5014373;28;20456;-60
2021/06/17 06:20:10;;;;;;;3.47;3.00;;;23.40;51.50;;;;;;5014627;28;20384;-60
2021/06/17 06:22:36;;;;;;;4.07;2.95;;;23.50;51.00;;;;;;5014245;28;20392;-60
2021/06/17 06:25:03;;;;;;;4.47;3.20;;;23.50;51.30;;;;;;5012517;28;20401;-60
2021/06/17 06:27:29;;;;;;;3.55;2.78;;;23.50;51.00;;;;;;5014039;28;20428;-60
2021/06/17 06:29:56;;;;;;;3.50;2.72;;;23.50;51.00;;;;;;5014084;28;20392;-60
2021/06/17 06:32:21;;;;;;;3.73;2.83;;;23.50;50.90;;;;;;5014111;28;20404;-61
2021/06/17 06:34:47;;;;;;;4.30;2.67;;;23.50;51.00;;;;;;5013802;28;20423;-60
2021/06/17 06:37:13;;;;;;;4.27;2.90;;;23.50;51.10;;;;;;5013490;28;20400;-60
2021/06/17 06:39:38;;;;;;;3.90;3.00;;;23.50;51.20;;;;;;5013500;28;20479;-60
2021/06/17 06:42:05;;;;;;;3.33;2.63;;;23.50;51.30;;;;;;5013940;28;20420;-60
2021/06/17 06:44:30;;;;;;;4.53;2.60;;;23.50;51.10;;;;;;5013661;28;20476;-60
2021/06/17 06:46:58;;;;;;;3.75;2.85;;;23.50;50.90;;;;;;5013406;28;20405;-61
2021/06/17 06:49:24;;;;;;;3.25;2.72;;;23.50;51.10;;;;;;5013656;28;20404;-60
2021/06/17 06:51:50;;;;;;;3.13;2.80;;;23.50;51.10;;;;;;5013770;28;20376;-61
2021/06/17 06:54:18;;;;;;;3.38;2.65;;;23.50;50.60;;;;;;5013681;28;20401;-60
2021/06/17 06:56:45;;;;;;;3.30;2.58;;;23.50;50.60;;;;;;5013382;28;20393;-60
2021/06/17 06:59:11;;;;;;;3.88;2.80;;;23.50;50.50;;;;;;5013279;28;20425;-60
2021/06/17 07:01:37;;;;;;;3.83;2.85;;;23.50;50.60;;;;;;5013489;28;20440;-60
2021/06/17 07:04:04;;;;;;;3.00;2.70;;;23.50;50.60;;;;;;5013700;28;20393;-60
2021/06/17 07:06:30;;;;;;;3.30;2.72;;;23.50;50.70;;;;;;5013285;28;20912;-60
2021/06/17 07:08:55;;;;;;;5.00;2.80;;;23.50;50.50;;;;;;5012585;28;20484;-60
2021/06/17 07:11:21;;;;;;;3.28;2.58;;;23.50;50.50;;;;;;5013062;28;20400;-60
2021/06/17 07:13:47;;;;;;;3.15;2.60;;;23.50;50.60;;;;;;5013283;28;20476;-60
2021/06/17 07:16:12;;;;;;;3.20;2.70;;;23.50;51.00;;;;;;5013378;28;20964;-60
2021/06/17 07:18:38;;;;;;;2.63;2.42;;;23.50;50.50;;;;;;5013165;28;20418;-60
2021/06/17 07:21:04;;;;;;;2.88;2.50;;;23.50;50.40;;;;;;5012854;28;20389;-60
2021/06/17 07:23:32;;;;;;;3.15;2.65;;;23.50;50.40;;;;;;5012973;28;20455;-60
2021/06/17 07:25:58;;;;;;;4.00;2.50;;;23.50;50.30;;;;;;5013063;28;20596;-60
2021/06/17 07:28:24;;;;;;;2.77;2.40;;;23.60;50.30;;;;;;5013010;28;20418;-60
2021/06/17 07:30:49;;;;;;;2.70;2.40;;;23.50;50.30;;;;;;5012613;28;20393;-61
2021/06/17 07:33:15;;;;;;;3.00;2.63;;;23.50;51.00;;;;;;5012713;28;20397;-60
2021/06/17 07:35:41;;;;;;;2.88;2.53;;;23.50;50.50;;;;;;5012873;28;20393;-60
2021/06/17 07:38:06;;;;;;;2.80;2.50;;;23.50;50.80;;;;;;5012828;28;20397;-60
2021/06/17 07:40:32;;;;;;;3.50;2.45;;;23.50;50.60;;;;;;5011927;28;20396;-60
2021/06/17 07:42:58;;;;;;;2.73;2.40;;;23.50;50.80;;;;;;5011983;28;20472;-60
2021/06/17 07:45:29;;;;;;;2.97;2.42;;;23.60;50.80;;;;;;5012562;28;20404;-60
2021/06/17 07:47:55;;;;;;;3.30;2.40;;;23.60;51.00;;;;;;5012694;28;20494;-60
2021/06/17 07:50:20;;;;;;;2.40;2.20;;;23.60;50.50;;;;;;5012487;28;20428;-61
2021/06/17 07:52:46;;;;;;;2.90;2.60;;;23.60;50.60;;;;;;5011966;28;20459;-60
2021/06/17 07:55:12;;;;;;;3.35;2.60;;;23.50;50.50;;;;;;5012326;28;20400;-61
2021/06/17 07:57:37;;;;;;;3.37;2.40;;;23.60;50.40;;;;;;5012495;28;20655;-60
2021/06/17 08:00:06;;;;;;;2.90;2.20;;;23.60;50.60;;;;;;5012407;28;20397;-60
2021/06/17 08:02:33;;;;;;;2.67;2.20;;;23.50;50.30;;;;;;5011220;28;20475;-60
2021/06/17 08:04:58;;;;;;;2.45;2.20;;;23.50;50.40;;;;;;5011979;28;20389;-60
2021/06/17 08:07:24;;;;;;;2.78;2.40;;;23.60;50.40;;;;;;5011113;28;20772;-60
2021/06/17 08:09:50;;;;;;;2.53;2.30;;;23.60;50.20;;;;;;5012377;28;20420;-60
2021/06/17 08:12:16;;;;;;;3.20;2.40;;;23.60;50.10;;;;;;5012382;28;20471;-60
2021/06/17 08:14:42;;;;;;;3.03;2.40;;;23.50;50.20;;;;;;5012154;28;20488;-60
2021/06/17 08:17:07;;;;;;;2.67;2.28;;;23.60;50.20;;;;;;5012007;28;20397;-60
2021/06/17 08:19:33;;;;;;;2.60;2.30;;;23.60;50.20;;;;;;5012097;28;20476;-60
2021/06/17 08:22:05;;;;;;;2.50;2.20;;;23.60;50.30;;;;;;5012376;28;20393;-60
2021/06/17 08:24:33;;;;;;;2.95;2.40;;;23.60;50.10;;;;;;5011369;28;20423;-60
2021/06/17 08:26:59;;;;;;;2.75;2.10;;;23.60;50.20;;;;;;5011610;28;20448;-60
2021/06/17 08:29:24;;;;;;;2.85;2.30;;;23.60;50.20;;;;;;5012037;28;20877;-60
2021/06/17 08:31:50;;;;;;;3.38;2.30;;;23.60;50.20;;;;;;5011992;28;20397;-60
2021/06/17 08:34:16;;;;;;;2.70;2.35;;;23.60;50.30;;;;;;5012033;28;20412;-60
2021/06/17 08:36:42;;;;;;;2.57;2.20;;;23.60;50.30;;;;;;5011870;28;20393;-60
2021/06/17 08:39:08;;;;;;;2.50;2.28;;;23.60;50.10;;;;;;5011407;28;20388;-60
2021/06/17 08:41:34;;;;;;;2.50;2.30;;;23.60;50.30;;;;;;5011544;28;20392;-60
2021/06/17 08:43:59;;;;;;;2.40;2.20;;;23.60;50.30;;;;;;5011624;28;20399;-60
2021/06/17 08:46:25;;;;;;;3.08;2.40;;;23.60;50.30;;;;;;5011641;28;20535;-60
2021/06/17 08:48:51;;;;;;;2.65;2.30;;;23.60;50.30;;;;;;5011502;28;20401;-60
2021/06/17 08:51:18;;;;;;;2.67;2.20;;;23.60;50.40;;;;;;5011550;28;20467;-60
2021/06/17 08:53:44;;;;;;;2.45;2.20;;;23.60;50.90;;;;;;5011635;28;20392;-60
2021/06/17 08:56:10;;;;;;;2.30;2.10;;;23.60;50.30;;;;;;5011209;28;20412;-60
2021/06/17 08:58:36;;;;;;;3.03;2.10;;;23.60;50.30;;;;;;5011322;28;20472;-60
2021/06/17 09:01:13;;;;;;;3.00;2.30;;;23.60;50.30;;;;;;5011233;28;20492;-59
2021/06/17 09:03:40;;;;;;;2.83;2.40;;;23.60;50.30;;;;;;5013347;28;20377;-59
2021/06/17 09:06:07;;;;;;;2.42;2.22;;;23.60;50.20;;;;;;5014417;28;20412;-59
2021/06/17 09:08:34;;;;;;;2.67;2.13;;;23.60;50.30;;;;;;5015461;28;20424;-60
2021/06/17 09:11:02;;;;;;;3.80;2.40;;;23.60;50.20;;;;;;5015464;28;20392;-60
2021/06/17 09:13:30;;;;;;;2.72;2.38;;;23.60;50.50;;;;;;5015566;28;20389;-60
2021/06/17 09:15:56;;;;;;;3.58;2.33;;;23.60;50.40;;;;;;5015613;28;20476;-60
2021/06/17 09:18:23;;;;;;;3.00;2.22;;;23.60;50.30;;;;;;5015506;28;20480;-59
2021/06/17 09:20:58;;;;;;;2.95;2.30;;;23.60;50.40;;;;;;5015243;28;20428;-59
2021/06/17 09:23:26;;;;;;;2.40;2.20;;;23.60;50.60;;;;;;5015155;28;20389;-59
2021/06/17 09:25:54;;;;;;;2.50;2.30;;;23.60;50.60;;;;;;5014894;28;20388;-60
2021/06/17 09:28:20;;;;;;;2.60;2.38;;;23.60;51.00;;;;;;5013996;28;20428;-62
2021/06/17 09:30:46;;;;;;;2.50;2.30;;;23.60;50.60;;;;;;5015280;28;20745;-60
2021/06/17 09:33:14;;;;;;;2.30;2.10;;;23.60;50.40;;;;;;5014874;28;20397;-60
2021/06/17 09:35:57;;;;;;;2.50;2.30;;;23.60;50.70;;;;;;5015075;28;20467;-60
2021/06/17 09:38:24;;;;;;;2.73;2.30;;;23.60;50.50;;;;;;5015233;28;20487;-59
2021/06/17 09:40:51;;;;;;;2.42;2.20;;;23.60;50.70;;;;;;5014651;28;20447;-60
2021/06/17 09:43:34;;;;;;;2.30;2.10;;;23.60;50.60;;;;;;5015004;28;20421;-60
2021/06/17 09:46:06;;;;;;;2.45;2.15;;;23.60;50.40;;;;;;5014953;28;20462;-59
2021/06/17 09:48:38;;;;;;;2.20;2.00;;;23.60;50.40;;;;;;5015128;28;20417;-60
2021/06/17 09:51:44;;;;;;;2.17;1.92;;;23.60;50.30;;;;;;5014386;28;20385;-59
2021/06/17 09:54:39;;;;;;;2.45;2.13;;;23.60;50.30;;;;;;5014884;28;20397;-59
2021/06/17 09:57:19;;;;;;;2.70;2.20;;;23.60;50.40;;;;;;5012975;28;20400;-59
2021/06/17 09:59:50;;;;;;;2.60;2.30;;;23.60;50.30;;;;;;5014817;28;20507;-59
2021/06/17 10:02:39;;;;;;;2.47;2.17;;;23.60;50.30;;;;;;5014811;28;20393;-60
2021/06/17 10:05:19;;;;;;;2.53;2.33;;;23.60;50.40;;;;;;5014392;28;20424;-59
2021/06/17 10:07:47;;;;;;;2.80;2.38;;;23.60;50.40;;;;;;5014465;28;20471;-59
2021/06/17 10:10:14;;;;;;;2.60;2.40;;;23.60;50.50;;;;;;5014667;28;20447;-60
2021/06/17 10:12:41;;;;;;;3.33;2.53;;;23.60;50.50;;;;;;5013868;28;20396;-59
2021/06/17 10:15:08;;;;;;;2.50;2.30;;;23.60;50.60;;;;;;5013316;28;20485;-60
2021/06/17 10:17:34;;;;;;;2.80;2.60;;;23.60;50.60;;;;;;5014477;28;20396;-60
2021/06/17 10:20:05;;;;;;;3.28;2.47;;;23.60;50.70;;;;;;5014442;28;20385;-60
2021/06/17 10:22:32;;;;;;;2.75;2.47;;;23.60;50.50;;;;;;5014277;28;20389;-59
2021/06/17 10:24:59;;;;;;;2.60;2.40;;;23.60;50.50;;;;;;5014086;28;20385;-59
2021/06/17 10:27:35;;;;;;;2.90;2.60;;;23.60;50.70;;;;;;5014018;28;20432;-60
2021/06/17 10:30:04;;;;;;;2.70;2.30;;;23.60;50.70;;;;;;5014326;28;20975;-59
2021/06/17 10:32:43;;;;;;;2.47;2.20;;;23.60;50.80;;;;;;5014102;28;20385;-59
2021/06/17 10:35:09;;;;;;;2.67;2.40;;;23.60;50.80;;;;;;5013716;28;20427;-59
2021/06/17 10:38:03;;;;;;;2.72;2.53;;;23.50;50.80;;;;;;5013603;28;20475;-59
2021/06/17 10:40:30;;;;;;;2.70;2.33;;;23.60;50.70;;;;;;5011535;28;20393;-59
2021/06/17 10:42:57;;;;;;;3.00;2.70;;;23.60;50.60;;;;;;5012495;28;20873;-59
2021/06/17 10:45:46;;;;;;;3.10;2.65;;;23.60;50.70;;;;;;5013544;28;20459;-59
2021/06/17 10:48:13;;;;;;;2.83;2.53;;;23.60;50.80;;;;;;5013869;28;20901;-60
2021/06/17 10:50:42;;;;;;;2.83;2.55;;;23.60;50.80;;;;;;5013757;28;20399;-59
2021/06/17 10:53:28;;;;;;;2.72;2.35;;;23.60;50.80;;;;;;5013412;28;20909;-59
2021/06/17 10:56:02;;;;;;;2.90;2.60;;;23.60;50.70;;;;;;5013861;28;20386;-59
2021/06/17 10:58:45;;;;;;;2.72;2.50;;;23.60;50.70;;;;;;5013680;28;20377;-59
2021/06/17 11:01:28;;;;;;;2.90;2.60;;;23.60;51.30;;;;;;5013167;28;20491;-59
2021/06/17 11:04:12;;;;;;;2.83;2.50;;;23.60;50.70;;;;;;5013561;28;20723;-61
2021/06/17 11:06:53;;;;;;;2.72;2.22;;;23.60;50.80;;;;;;5013359;28;20391;-60
2021/06/17 11:09:45;;;;;;;2.53;2.33;;;23.60;50.80;;;;;;5013264;28;20543;-59
2021/06/17 11:12:16;;;;;;;2.60;2.38;;;23.60;50.80;;;;;;5013451;28;20796;-59
2021/06/17 11:14:44;;;;;;;2.58;2.33;;;23.60;50.70;;;;;;5013323;28;20472;-59
2021/06/17 11:17:30;;;;;;;2.80;2.50;;;23.60;50.80;;;;;;5012902;28;20500;-59
2021/06/17 11:20:01;;;;;;;2.75;2.50;;;23.60;50.90;;;;;;5003177;28;20393;-59
2021/06/17 11:22:59;;;;;;;2.80;2.45;;;23.60;50.80;;;;;;5013241;28;20433;-59
2021/06/17 11:25:30;;;;;;;2.80;2.40;;;23.60;50.80;;;;;;4998082;28;20401;-60
2021/06/17 11:28:03;;;;;;;2.53;2.33;;;23.60;50.90;;;;;;5012890;28;20424;-59
2021/06/17 11:30:38;;;;;;;2.35;2.15;;;23.60;50.80;;;;;;5011314;28;20396;-60
2021/06/17 11:33:19;;;;;;;2.65;2.30;;;23.60;50.90;;;;;;5012495;28;20397;-59
2021/06/17 11:35:58;;;;;;;2.50;2.25;;;23.60;50.90;;;;;;5012930;28;20403;-59
2021/06/17 11:38:30;;;;;;;2.80;2.50;;;23.60;50.80;;;;;;5012980;28;20407;-59
2021/06/17 11:40:56;;;;;;;2.65;2.30;;;23.60;50.80;;;;;;5012760;28;20396;-59
2021/06/17 11:43:27;;;;;;;2.40;2.20;;;23.60;50.80;;;;;;5012052;28;20423;-60
2021/06/17 11:45:54;;;;;;;2.63;2.43;;;23.60;50.80;;;;;;5012238;28;20412;-60
2021/06/17 11:48:23;;;;;;;2.67;2.30;;;23.60;50.70;;;;;;5012627;28;20447;-59
2021/06/17 11:50:52;;;;;;;2.30;2.10;;;23.60;50.90;;;;;;5012728;28;20759;-59
2021/06/17 11:53:25;;;;;;;3.00;2.25;;;23.60;51.40;;;;;;5012084;28;20385;-60
2021/06/17 11:55:56;;;;;;;2.42;2.20;;;23.60;50.70;;;;;;5012131;28;20395;-60
2021/06/17 11:58:31;;;;;;;2.53;2.33;;;23.60;50.80;;;;;;5011993;28;20434;-59
2021/06/17 12:00:58;;;;;;;2.67;2.42;;;23.70;51.00;;;;;;5012579;28;20389;-59
2021/06/17 12:03:24;;;;;;;3.42;2.50;;;23.60;51.30;;;;;;5012307;28;20396;-59
2021/06/17 12:05:51;;;;;;;3.20;2.42;;;23.70;51.20;;;;;;5012365;28;20395;-59
2021/06/17 12:08:17;;;;;;;3.80;2.60;;;23.70;51.10;;;;;;5012318;28;20425;-59
2021/06/17 12:10:45;;;;;;;3.37;2.43;;;23.70;51.30;;;;;;5012229;28;20407;-59
2021/06/17 12:13:13;;;;;;;3.92;2.35;;;23.70;51.60;;;;;;5011360;28;20411;-58
2021/06/17 12:15:41;;;;;;;4.93;2.53;;;23.70;51.70;;;;;;5012110;28;20761;-59
2021/06/17 12:18:09;;;;;;;3.90;2.53;;;23.70;51.50;;;;;;5012164;28;20393;-59
2021/06/17 12:20:44;;;;;;;3.30;2.47;;;23.70;51.60;;;;;;5011923;28;20464;-59
2021/06/17 12:23:16;;;;;;;3.47;2.40;;;23.80;51.60;;;;;;5011879;28;20444;-59
2021/06/17 12:25:46;;;;;;;2.35;2.10;;;23.80;51.40;;;;;;5011584;28;20472;-59
2021/06/17 12:28:14;;;;;;;3.67;2.10;;;23.80;51.40;;;;;;5012055;28;20470;-59
2021/06/17 12:30:44;;;;;;;2.97;2.30;;;23.80;51.40;;;;;;5011967;28;20888;-59
2021/06/17 12:33:12;;;;;;;3.55;2.35;;;23.80;51.40;;;;;;5011783;28;20403;-59
2021/06/17 12:35:45;;;;;;;2.58;2.38;;;23.80;51.40;;;;;;5011945;28;20392;-59
2021/06/17 12:38:12;;;;;;;3.77;2.50;;;23.80;51.30;;;;;;5011799;28;20465;-59
2021/06/17 12:40:42;;;;;;;2.90;2.33;;;23.80;51.40;;;;;;5011873;28;20431;-59
2021/06/17 12:43:14;;;;;;;3.45;2.40;;;23.80;51.30;;;;;;5011641;28;20464;-59
2021/06/17 12:45:43;;;;;;;2.70;2.23;;;23.80;51.40;;;;;;5010409;28;20764;-60
2021/06/17 12:48:18;;;;;;;3.28;2.28;;;23.80;51.40;;;;;;5011799;28;20421;-59
2021/06/17 12:53:45;;;;;;;4.65;2.38;;;23.80;51.40;;;;;;5011811;28;20376;-59
2021/06/17 12:56:10;;;;;;;2.90;2.30;;;23.80;51.40;;;;;;5011578;28;20440;-59
2021/06/17 12:58:47;;;;;;;2.97;2.38;;;23.80;51.40;;;;;;5011240;28;20392;-60
2021/06/17 13:01:13;;;;;;;2.67;2.40;;;23.80;51.40;;;;;;5011295;28;20479;-59
2021/06/17 13:03:39;;;;;;;2.40;2.20;;;23.80;51.40;;;;;;5011568;28;20572;-61
2021/06/17 13:06:06;;;;;;;2.50;2.20;;;23.80;51.40;;;;;;5011569;28;20395;-61